Sao Jose do Rio Preto, Brazil
Current Conditions -  °F | °C
As of 2:00 AM on Sunday 26 Oct 2014 (Local Time) from SBSR Reporting Station
Light Rain Light Rain  
Wind Chill: 68°   Ceiling: 10000
Heat Index: 68°   Visibility: 5mi
Dew Point: 66°   Wind: 2mph
Humidity: 94%   Direction: 20°NNE
Pressure: 30.03"   Gusts: NA
Location:  20.8°S, 49.39°W
Report Text: SBSR 260400Z 02002KT 8000 -RA SCT007 OVC100 20/19 Q1017
Loading
Personal Weather Stations






























Interactive Weather Map
Tropical Storm Tracking
New forecast layout! Learn more

10-Day Weather Forecast

Advertisements
Track Severe Weather on mobile